sensor_id;sensor_type;location;lat;lon;timestamp;pressure;altitude;pressure_sealevel;temperature;humidity
65151;BME280;51918;51.856;0.150;2023-02-11T00:03:17;102584.16;;;7.17;91.60
65151;BME280;51918;51.856;0.150;2023-02-11T00:08:17;102583.81;;;7.23;90.18
65151;BME280;51918;51.856;0.150;2023-02-11T00:13:18;102592.50;;;7.21;90.33
65151;BME280;51918;51.856;0.150;2023-02-11T00:18:20;102593.59;;;7.17;90.10
65151;BME280;51918;51.856;0.150;2023-02-11T00:23:21;102591.09;;;7.15;91.04
65151;BME280;51918;51.856;0.150;2023-02-11T00:28:22;102588.00;;;7.10;91.43
65151;BME280;51918;51.856;0.150;2023-02-11T00:33:24;102592.56;;;7.19;92.41
65151;BME280;51918;51.856;0.150;2023-02-11T00:38:25;102597.28;;;7.27;92.93
65151;BME280;51918;51.856;0.150;2023-02-11T00:43:25;102587.22;;;7.38;92.63
65151;BME280;51918;51.856;0.150;2023-02-11T00:48:27;102594.56;;;7.45;92.28
65151;BME280;51918;51.856;0.150;2023-02-11T00:53:28;102596.50;;;7.55;92.76
65151;BME280;51918;51.856;0.150;2023-02-11T00:58:29;102594.94;;;7.67;92.40
65151;BME280;51918;51.856;0.150;2023-02-11T01:03:31;102589.44;;;7.73;91.68
65151;BME280;51918;51.856;0.150;2023-02-11T01:08:31;102577.81;;;7.82;91.54
65151;BME280;51918;51.856;0.150;2023-02-11T01:13:35;102588.44;;;7.90;91.29
65151;BME280;51918;51.856;0.150;2023-02-11T01:18:37;102586.97;;;8.00;90.89
65151;BME280;51918;51.856;0.150;2023-02-11T01:28:57;102579.81;;;8.05;89.00
65151;BME280;51918;51.856;0.150;2023-02-11T01:33:59;102577.16;;;8.07;89.70
65151;BME280;51918;51.856;0.150;2023-02-11T01:39:00;102570.94;;;8.11;89.30
65151;BME280;51918;51.856;0.150;2023-02-11T01:44:22;102572.84;;;8.08;89.87
65151;BME280;51918;51.856;0.150;2023-02-11T01:49:27;102561.94;;;8.04;90.33
65151;BME280;51918;51.856;0.150;2023-02-11T01:54:31;102560.31;;;8.03;90.96
65151;BME280;51918;51.856;0.150;2023-02-11T01:59:42;102565.53;;;8.01;91.22
65151;BME280;51918;51.856;0.150;2023-02-11T02:04:51;102557.94;;;8.00;91.76
65151;BME280;51918;51.856;0.150;2023-02-11T02:09:58;102551.91;;;8.01;92.25
65151;BME280;51918;51.856;0.150;2023-02-11T02:15:18;102543.63;;;8.10;92.03
65151;BME280;51918;51.856;0.150;2023-02-11T02:26:24;102549.84;;;8.20;91.82
65151;BME280;51918;51.856;0.150;2023-02-11T02:31:43;102550.75;;;8.19;91.74
65151;BME280;51918;51.856;0.150;2023-02-11T02:36:59;102555.69;;;8.22;91.49
65151;BME280;51918;51.856;0.150;2023-02-11T02:42:02;102541.78;;;8.27;91.39
65151;BME280;51918;51.856;0.150;2023-02-11T02:47:04;102541.50;;;8.31;91.76
65151;BME280;51918;51.856;0.150;2023-02-11T02:52:15;102521.81;;;8.32;91.27
65151;BME280;51918;51.856;0.150;2023-02-11T02:57:30;102527.97;;;8.29;91.54
65151;BME280;51918;51.856;0.150;2023-02-11T03:02:35;102534.72;;;8.30;90.67
65151;BME280;51918;51.856;0.150;2023-02-11T03:07:41;102532.41;;;8.25;89.72
65151;BME280;51918;51.856;0.150;2023-02-11T03:12:45;102526.78;;;8.20;88.89
65151;BME280;51918;51.856;0.150;2023-02-11T03:17:48;102529.38;;;8.06;88.60
65151;BME280;51918;51.856;0.150;2023-02-11T03:22:55;102519.41;;;7.87;89.06
65151;BME280;51918;51.856;0.150;2023-02-11T03:28:02;102520.19;;;7.75;89.01
65151;BME280;51918;51.856;0.150;2023-02-11T03:33:11;102513.16;;;7.64;88.60
65151;BME280;51918;51.856;0.150;2023-02-11T03:38:19;102519.28;;;7.47;90.24
65151;BME280;51918;51.856;0.150;2023-02-11T03:43:22;102516.63;;;7.34;90.34
65151;BME280;51918;51.856;0.150;2023-02-11T03:48:29;102525.97;;;7.21;90.51
65151;BME280;51918;51.856;0.150;2023-02-11T03:53:32;102529.13;;;7.10;90.04
65151;BME280;51918;51.856;0.150;2023-02-11T03:58:33;102531.47;;;6.99;90.57
65151;BME280;51918;51.856;0.150;2023-02-11T04:03:33;102534.91;;;6.84;91.58
65151;BME280;51918;51.856;0.150;2023-02-11T04:08:35;102538.72;;;6.76;92.85
65151;BME280;51918;51.856;0.150;2023-02-11T04:13:36;102539.72;;;6.74;92.17
65151;BME280;51918;51.856;0.150;2023-02-11T04:18:36;102542.44;;;6.71;92.10
65151;BME280;51918;51.856;0.150;2023-02-11T04:23:38;102546.25;;;6.64;91.19
65151;BME280;51918;51.856;0.150;2023-02-11T04:28:39;102542.56;;;6.53;90.11
65151;BME280;51918;51.856;0.150;2023-02-11T04:33:40;102544.06;;;6.42;89.98
65151;BME280;51918;51.856;0.150;2023-02-11T04:38:42;102545.44;;;6.31;90.55
65151;BME280;51918;51.856;0.150;2023-02-11T04:43:42;102547.75;;;6.20;91.23
65151;BME280;51918;51.856;0.150;2023-02-11T04:48:43;102551.38;;;6.16;91.40
65151;BME280;51918;51.856;0.150;2023-02-11T04:53:45;102549.97;;;6.10;92.31
65151;BME280;51918;51.856;0.150;2023-02-11T04:58:45;102552.72;;;6.07;92.20
65151;BME280;51918;51.856;0.150;2023-02-11T05:03:46;102553.84;;;6.02;92.92
65151;BME280;51918;51.856;0.150;2023-02-11T05:08:48;102560.88;;;5.98;93.45
65151;BME280;51918;51.856;0.150;2023-02-11T05:13:48;102555.91;;;5.95;94.26
65151;BME280;51918;51.856;0.150;2023-02-11T05:18:49;102561.25;;;5.90;94.13
65151;BME280;51918;51.856;0.150;2023-02-11T05:23:51;102569.97;;;5.86;95.22
65151;BME280;51918;51.856;0.150;2023-02-11T05:28:52;102562.50;;;5.83;95.35
65151;BME280;51918;51.856;0.150;2023-02-11T05:33:52;102557.44;;;5.82;95.45
65151;BME280;51918;51.856;0.150;2023-02-11T05:38:54;102565.94;;;5.82;96.55
65151;BME280;51918;51.856;0.150;2023-02-11T05:43:55;102565.94;;;5.82;97.56
65151;BME280;51918;51.856;0.150;2023-02-11T05:48:55;102561.31;;;5.89;99.00
65151;BME280;51918;51.856;0.150;2023-02-11T05:53:57;102558.53;;;5.93;98.86
65151;BME280;51918;51.856;0.150;2023-02-11T05:58:58;102565.47;;;6.07;99.20
65151;BME280;51918;51.856;0.150;2023-02-11T06:03:59;102569.94;;;6.19;99.53
65151;BME280;51918;51.856;0.150;2023-02-11T06:09:01;102571.19;;;6.28;100.00
65151;BME280;51918;51.856;0.150;2023-02-11T06:14:01;102567.13;;;6.40;100.00
65151;BME280;51918;51.856;0.150;2023-02-11T06:19:02;102582.72;;;6.51;99.41
65151;BME280;51918;51.856;0.150;2023-02-11T06:24:05;102578.78;;;6.61;99.63
65151;BME280;51918;51.856;0.150;2023-02-11T06:29:06;102578.25;;;6.71;99.76
65151;BME280;51918;51.856;0.150;2023-02-11T06:34:07;102574.63;;;6.75;99.69
65151;BME280;51918;51.856;0.150;2023-02-11T06:39:11;102579.25;;;6.84;100.00
65151;BME280;51918;51.856;0.150;2023-02-11T06:44:12;102592.41;;;6.92;100.00
65151;BME280;51918;51.856;0.150;2023-02-11T06:49:12;102603.78;;;7.02;100.00
65151;BME280;51918;51.856;0.150;2023-02-11T06:54:14;102592.19;;;7.11;99.86
65151;BME280;51918;51.856;0.150;2023-02-11T06:59:15;102586.53;;;7.20;99.29
65151;BME280;51918;51.856;0.150;2023-02-11T07:04:16;102602.13;;;7.32;99.52
65151;BME280;51918;51.856;0.150;2023-02-11T07:09:18;102606.16;;;7.36;99.29
65151;BME280;51918;51.856;0.150;2023-02-11T07:14:19;102597.56;;;7.37;99.26
65151;BME280;51918;51.856;0.150;2023-02-11T07:19:19;102599.22;;;7.38;99.37
65151;BME280;51918;51.856;0.150;2023-02-11T07:24:21;102605.78;;;7.42;99.43
65151;BME280;51918;51.856;0.150;2023-02-11T07:29:22;102614.69;;;7.51;99.74
65151;BME280;51918;51.856;0.150;2023-02-11T07:34:22;102612.66;;;7.56;99.69
65151;BME280;51918;51.856;0.150;2023-02-11T07:39:24;102612.31;;;7.62;99.62
65151;BME280;51918;51.856;0.150;2023-02-11T07:44:26;102615.78;;;7.61;100.00
